Time;durP1;ratioP1;P1;durP2;ratioP2;P2;SDS_P1;SDS_P2;PMS_P1;PMS_P2;Temp;Humidity;BMP_temperature;BMP_pressure;BME280_temperature;BME280_humidity;BME280_pressure;Samples;Min_cycle;Max_cycle;Signal;HPM_P1;HPM_P2
2022/03/14 00:01:37;;;;;;;11.37;9.00;;;;;;;9.51;36.18;100526.81;5103016;28;20511;-63
2022/03/14 00:04:06;;;;;;;13.23;9.47;;;;;;;9.60;36.22;100530.56;5102563;28;20451;-64
2022/03/14 00:06:35;;;;;;;10.30;8.87;;;;;;;9.63;36.62;100526.75;5102426;28;21134;-63
2022/03/14 00:09:07;;;;;;;10.53;9.20;;;;;;;9.65;36.15;100533.66;5102531;28;20458;-63
2022/03/14 00:11:37;;;;;;;10.00;8.30;;;;;;;9.65;35.81;100535.47;5102448;28;20466;-63
2022/03/14 00:14:08;;;;;;;12.10;9.17;;;;;;;9.57;35.85;100531.63;5102457;28;20455;-63
2022/03/14 00:16:39;;;;;;;14.30;10.80;;;;;;;9.55;35.08;100535.41;5102798;28;20439;-63
2022/03/14 00:19:07;;;;;;;14.87;9.73;;;;;;;9.54;35.18;100539.06;5102014;28;20465;-63
2022/03/14 00:21:39;;;;;;;11.37;9.53;;;;;;;9.53;33.76;100535.53;5102462;28;20439;-63
2022/03/14 00:24:08;;;;;;;11.20;9.00;;;;;;;9.50;34.52;100540.28;5101485;28;20477;-63
2022/03/14 00:26:35;;;;;;;10.90;8.90;;;;;;;9.55;37.70;100549.59;5102694;28;20450;-63
2022/03/14 00:29:03;;;;;;;12.67;9.33;;;;;;;9.51;37.67;100536.63;5102296;28;20447;-63
2022/03/14 00:31:29;;;;;;;10.80;8.80;;;;;;;9.51;35.86;100542.84;5101969;28;20443;-63
2022/03/14 00:33:56;;;;;;;10.60;9.20;;;;;;;9.63;36.06;100548.97;5102872;28;20466;-63
2022/03/14 00:36:25;;;;;;;10.27;8.00;;;;;;;9.55;37.03;100549.59;5101927;28;20479;-63
2022/03/14 00:38:53;;;;;;;13.17;9.07;;;;;;;9.45;37.96;100547.81;5101920;28;20563;-63
2022/03/14 00:41:19;;;;;;;11.73;9.00;;;;;;;9.38;37.71;100553.66;5101665;28;21044;-63
2022/03/14 00:43:46;;;;;;;10.70;8.47;;;;;;;9.09;35.50;100542.69;5102021;28;20463;-63
2022/03/14 00:46:15;;;;;;;8.87;7.97;;;;;;;9.01;34.95;100540.63;5101786;28;20550;-63
2022/03/14 00:48:42;;;;;;;11.80;9.40;;;;;;;9.14;35.21;100544.97;5101503;28;20443;-63
2022/03/14 00:51:09;;;;;;;10.73;9.30;;;;;;;9.12;34.87;100542.44;5101534;28;20972;-63
2022/03/14 00:53:37;;;;;;;9.60;8.60;;;;;;;9.21;35.70;100546.19;5101463;28;20870;-64
2022/03/14 00:56:05;;;;;;;10.97;8.80;;;;;;;9.28;37.37;100546.53;5101802;28;20489;-63
2022/03/14 00:58:33;;;;;;;11.30;8.67;;;;;;;9.07;34.70;100547.28;5102384;28;20652;-63
2022/03/14 01:01:00;;;;;;;11.97;8.57;;;;;;;9.10;34.35;100547.06;5101341;28;20451;-63
2022/03/14 01:03:26;;;;;;;12.40;9.37;;;;;;;9.02;34.37;100552.97;5101668;28;20443;-63
2022/03/14 01:05:53;;;;;;;10.80;7.80;;;;;;;9.01;34.56;100553.97;5100980;28;20589;-63
2022/03/14 01:08:20;;;;;;;11.80;8.57;;;;;;;8.98;35.00;100564.03;5102041;28;20439;-63
2022/03/14 01:10:48;;;;;;;13.10;9.00;;;;;;;8.92;35.97;100554.69;5100870;28;20476;-63
2022/03/14 01:13:15;;;;;;;10.57;9.47;;;;;;;9.00;35.86;100557.59;5102029;28;20438;-62
2022/03/14 01:15:42;;;;;;;10.87;9.23;;;;;;;9.08;36.07;100558.81;5101461;28;20482;-63
2022/03/14 01:18:09;;;;;;;10.07;8.60;;;;;;;9.15;35.93;100565.34;5101526;28;20439;-63
2022/03/14 01:20:35;;;;;;;13.60;8.70;;;;;;;9.20;36.88;100561.34;5101444;28;20443;-63
2022/03/14 01:23:02;;;;;;;12.27;8.97;;;;;;;9.15;35.64;100566.19;5101378;28;20538;-63
2022/03/14 01:25:29;;;;;;;10.20;8.97;;;;;;;9.23;36.69;100570.91;5100664;28;20455;-63
2022/03/14 01:27:57;;;;;;;9.43;8.43;;;;;;;9.23;34.65;100576.25;5101966;28;20459;-63
2022/03/14 01:30:24;;;;;;;10.30;8.23;;;;;;;9.19;34.37;100564.13;5101048;28;20624;-63
2022/03/14 01:32:51;;;;;;;10.43;8.60;;;;;;;9.22;34.80;100578.06;5101055;28;20435;-63
2022/03/14 01:35:18;;;;;;;10.77;8.63;;;;;;;9.21;34.57;100575.53;5100649;28;20514;-63
2022/03/14 01:37:49;;;;;;;10.87;8.60;;;;;;;9.16;33.06;100581.22;5101498;28;20450;-63
2022/03/14 01:40:16;;;;;;;10.80;8.70;;;;;;;9.20;33.84;100580.03;5100779;28;20455;-63
2022/03/14 01:42:43;;;;;;;11.23;8.50;;;;;;;9.26;36.20;100581.34;5101418;28;20856;-63
2022/03/14 01:45:13;;;;;;;11.43;9.63;;;;;;;9.23;33.06;100587.78;5100968;28;20508;-63
2022/03/14 01:47:41;;;;;;;14.87;12.10;;;;;;;9.17;33.12;100587.41;5101709;28;20447;-63
2022/03/14 01:50:09;;;;;;;10.23;8.30;;;;;;;9.22;35.31;100587.91;5101187;28;21078;-63
2022/03/14 01:52:35;;;;;;;13.37;9.50;;;;;;;9.26;34.64;100597.34;5101638;28;20461;-63
2022/03/14 01:55:03;;;;;;;13.17;8.80;;;;;;;9.32;34.92;100596.88;5100281;28;20491;-63
2022/03/14 01:57:30;;;;;;;10.67;8.10;;;;;;;9.33;34.55;100595.03;5102036;28;20898;-64
2022/03/14 01:59:57;;;;;;;13.03;8.60;;;;;;;9.42;35.08;100594.28;5101041;28;20457;-63
2022/03/14 02:02:25;;;;;;;11.10;8.63;;;;;;;9.32;34.03;100599.53;5101175;28;20431;-63
2022/03/14 02:04:52;;;;;;;11.40;9.07;;;;;;;9.28;35.14;100603.41;5085547;28;20447;-63
2022/03/14 02:07:19;;;;;;;10.47;8.40;;;;;;;9.25;34.74;100603.63;5101778;28;20819;-63
2022/03/14 02:09:45;;;;;;;12.20;8.87;;;;;;;9.30;35.23;100597.94;5100445;28;20969;-63
2022/03/14 02:12:13;;;;;;;11.53;9.53;;;;;;;9.34;36.51;100604.72;5101549;28;20443;-63
2022/03/14 02:14:40;;;;;;;13.63;8.80;;;;;;;9.39;36.97;100599.84;5099564;28;20522;-63
2022/03/14 02:17:08;;;;;;;13.47;10.10;;;;;;;9.43;37.78;100602.16;5081558;28;20439;-63
2022/03/14 02:19:36;;;;;;;11.90;9.43;;;;;;;9.45;38.46;100607.38;5098981;28;20473;-63
2022/03/14 02:22:06;;;;;;;14.83;9.90;;;;;;;9.51;40.53;100608.69;5101012;28;20436;-63
2022/03/14 02:24:32;;;;;;;13.73;9.20;;;;;;;9.45;40.76;100604.72;5103062;28;20459;-63
2022/03/14 02:26:59;;;;;;;14.20;9.70;;;;;;;9.31;42.68;100605.00;5105375;28;20466;-63
2022/03/14 02:29:26;;;;;;;13.93;10.10;;;;;;;9.08;43.13;100610.34;5105127;28;20471;-63
2022/03/14 02:31:52;;;;;;;12.03;9.37;;;;;;;9.04;44.17;100614.22;5104927;28;20446;-63
2022/03/14 02:34:19;;;;;;;14.40;9.80;;;;;;;9.04;46.98;100614.22;5104034;28;20447;-63
2022/03/14 02:36:46;;;;;;;16.17;10.53;;;;;;;8.95;47.47;100621.13;5104830;28;20506;-63
2022/03/14 02:39:14;;;;;;;13.00;9.53;;;;;;;8.86;46.57;100621.84;5104102;28;20949;-63
2022/03/14 02:41:42;;;;;;;14.10;9.47;;;;;;;8.85;47.90;100625.47;5104438;28;20521;-63
2022/03/14 02:44:09;;;;;;;11.63;10.27;;;;;;;8.92;49.42;100632.03;5104532;28;20530;-63
2022/03/14 02:46:37;;;;;;;17.03;11.57;;;;;;;9.00;50.21;100626.09;5104402;28;20451;-63
2022/03/14 02:49:04;;;;;;;14.37;10.93;;;;;;;9.05;51.49;100624.75;5104193;28;20500;-63
2022/03/14 02:51:31;;;;;;;16.20;12.17;;;;;;;9.05;51.00;100622.09;5088626;28;20435;-63
2022/03/14 02:53:58;;;;;;;16.27;10.43;;;;;;;9.04;49.55;100628.41;5103623;28;20514;-63
2022/03/14 02:56:26;;;;;;;14.50;11.30;;;;;;;9.07;49.51;100629.97;5103840;28;20482;-63
2022/03/14 02:58:53;;;;;;;11.23;10.13;;;;;;;9.14;48.22;100636.50;5104393;28;20443;-63
2022/03/14 03:01:20;;;;;;;14.20;9.47;;;;;;;9.13;47.73;100639.31;5104370;28;20447;-63
2022/03/14 03:03:48;;;;;;;14.77;11.30;;;;;;;9.09;47.55;100640.53;5103927;28;20471;-63
2022/03/14 03:06:15;;;;;;;13.40;10.07;;;;;;;9.10;47.94;100647.56;5103671;28;20530;-63
2022/03/14 03:08:44;;;;;;;17.20;11.43;;;;;;;9.05;50.58;100647.94;5103977;28;20435;-63
2022/03/14 03:11:11;;;;;;;13.97;10.63;;;;;;;8.94;53.51;100658.56;5103490;28;20447;-63
2022/03/14 03:13:52;;;;;;;12.63;10.87;;;;;;;8.87;52.66;100658.22;5103711;28;20500;-63
2022/03/14 03:16:18;;;;;;;12.50;10.00;;;;;;;8.79;52.92;100671.28;5103865;28;20483;-63
2022/03/14 03:18:46;;;;;;;15.00;10.83;;;;;;;8.83;52.94;100670.91;5103541;28;20435;-64
2022/03/14 03:21:13;;;;;;;12.50;10.47;;;;;;;8.86;48.34;100686.69;5104498;28;20450;-63
2022/03/14 03:23:40;;;;;;;11.80;9.20;;;;;;;8.86;45.79;100686.69;5103635;28;20523;-63
2022/03/14 03:26:06;;;;;;;12.90;11.10;;;;;;;8.89;49.53;100680.28;5103010;28;20450;-63
2022/03/14 03:28:35;;;;;;;13.13;10.63;;;;;;;8.89;51.86;100682.94;5103237;28;20435;-62
2022/03/14 03:31:05;;;;;;;11.47;9.80;;;;;;;8.91;50.64;100683.66;5103442;28;20447;-63
2022/03/14 03:33:32;;;;;;;24.40;11.30;;;;;;;8.82;49.70;100697.72;5103661;28;20484;-63
2022/03/14 03:35:58;;;;;;;15.10;10.30;;;;;;;8.77;51.68;100702.56;5102886;28;20573;-63
2022/03/14 03:38:25;;;;;;;12.73;10.57;;;;;;;8.75;52.84;100715.13;5103568;28;20459;-63
2022/03/14 03:40:52;;;;;;;15.67;12.30;;;;;;;8.79;53.59;100711.28;5102966;28;20470;-63
2022/03/14 03:43:18;;;;;;;14.00;11.73;;;;;;;8.76;54.27;100715.03;5103491;28;20450;-63
2022/03/14 03:45:45;;;;;;;14.53;11.80;;;;;;;8.74;54.76;100714.28;5102982;28;20458;-63
2022/03/14 03:48:14;;;;;;;14.80;10.93;;;;;;;8.73;55.82;100715.28;5103223;28;20439;-63
2022/03/14 03:50:40;;;;;;;15.30;12.60;;;;;;;8.68;56.41;100722.78;5103223;28;20434;-63
2022/03/14 03:53:07;;;;;;;16.00;12.93;;;;;;;8.68;56.74;100725.44;5102885;28;20466;-63
2022/03/14 03:55:34;;;;;;;15.77;12.73;;;;;;;8.67;56.44;100721.06;5102183;28;20516;-63
2022/03/14 03:58:00;;;;;;;20.93;12.30;;;;;;;8.51;54.38;100725.88;5102900;28;20443;-63
2022/03/14 04:00:27;;;;;;;13.33;11.97;;;;;;;8.36;56.51;100736.66;5103150;28;20458;-62
2022/03/14 04:02:54;;;;;;;13.70;12.07;;;;;;;8.05;57.32;100754.91;5102799;28;20443;-62
2022/03/14 04:05:22;;;;;;;16.30;13.10;;;;;;;8.13;56.94;100754.34;5102704;28;20446;-62
2022/03/14 04:07:49;;;;;;;18.20;13.33;;;;;;;8.02;56.64;100762.25;5103016;28;20461;-62
2022/03/14 04:10:16;;;;;;;14.87;12.17;;;;;;;7.83;58.01;100754.75;5102054;28;20512;-62
2022/03/14 04:12:44;;;;;;;15.47;12.97;;;;;;;8.04;59.91;100773.66;5102651;28;20431;-62
2022/03/14 04:15:11;;;;;;;16.43;11.90;;;;;;;7.98;59.53;100772.28;5102315;28;20459;-62
2022/03/14 04:17:38;;;;;;;15.87;13.93;;;;;;;7.98;62.12;100774.09;5103172;28;20498;-62
2022/03/14 04:20:06;;;;;;;18.27;13.30;;;;;;;8.12;62.42;100781.94;5101096;28;20443;-62
2022/03/14 04:22:36;;;;;;;18.27;14.67;;;;;;;8.27;63.29;100783.47;5103091;28;20474;-62
2022/03/14 04:25:03;;;;;;;16.50;14.47;;;;;;;8.22;64.58;100792.78;5101739;28;20516;-63
2022/03/14 04:27:30;;;;;;;19.40;14.80;;;;;;;8.17;65.89;100795.75;5103050;28;20424;-63
2022/03/14 04:29:56;;;;;;;19.20;15.60;;;;;;;8.18;66.97;100797.47;5102011;28;20440;-63
2022/03/14 04:32:24;;;;;;;19.90;15.00;;;;;;;8.12;67.47;100800.56;5103190;28;20447;-63
2022/03/14 04:34:51;;;;;;;21.47;14.70;;;;;;;8.18;67.88;100797.47;5102154;28;20490;-62
2022/03/14 04:37:17;;;;;;;18.17;14.67;;;;;;;8.10;68.30;100802.50;5102038;28;20531;-63
2022/03/14 04:39:46;;;;;;;20.90;15.13;;;;;;;8.15;69.10;100811.00;5101705;28;20469;-63
2022/03/14 04:42:17;;;;;;;20.97;16.50;;;;;;;8.15;69.76;100804.84;5102376;28;20735;-62
2022/03/14 04:44:45;;;;;;;19.97;15.70;;;;;;;8.16;70.08;100807.41;5102371;28;20530;-63
2022/03/14 04:47:11;;;;;;;18.80;16.03;;;;;;;8.09;68.04;100830.13;5101478;28;20459;-63
2022/03/14 04:49:39;;;;;;;21.33;17.10;;;;;;;8.05;69.64;100818.81;5101908;28;20432;-62
2022/03/14 04:52:06;;;;;;;21.13;15.97;;;;;;;8.14;68.45;100833.25;5102529;28;20442;-62
2022/03/14 04:54:32;;;;;;;19.23;15.93;;;;;;;8.23;70.00;100829.13;5101413;28;20823;-62
2022/03/14 04:57:00;;;;;;;22.90;16.00;;;;;;;8.28;70.29;100829.59;5101281;28;20536;-62
2022/03/14 04:59:27;;;;;;;24.50;16.43;;;;;;;8.25;70.33;100836.03;5102117;28;20469;-62
2022/03/14 05:01:54;;;;;;;22.13;16.57;;;;;;;8.26;69.53;100836.88;5101856;28;20443;-62
2022/03/14 05:04:20;;;;;;;21.03;15.10;;;;;;;8.28;69.00;100837.59;5101972;28;20435;-62
2022/03/14 05:06:47;;;;;;;19.50;15.63;;;;;;;8.08;68.75;100852.38;5101430;28;20442;-62
2022/03/14 05:09:14;;;;;;;21.93;17.90;;;;;;;8.06;70.36;100846.31;5101207;28;20452;-64
2022/03/14 05:11:40;;;;;;;24.27;16.63;;;;;;;7.90;69.91;100860.69;5101089;28;20454;-63
2022/03/14 05:14:09;;;;;;;27.53;17.40;;;;;;;8.03;69.69;100860.66;5100846;28;20455;-62
2022/03/14 05:16:47;;;;;;;24.40;17.87;;;;;;;7.82;71.04;100860.38;5099230;28;20549;-62
2022/03/14 05:19:13;;;;;;;24.00;17.33;;;;;;;7.68;71.85;100863.16;5100119;28;20558;-62
2022/03/14 05:21:40;;;;;;;23.70;17.63;;;;;;;7.66;72.37;100865.09;5101007;28;20443;-62
2022/03/14 05:24:08;;;;;;;23.37;17.50;;;;;;;7.64;72.81;100862.53;5099610;28;21019;-62
2022/03/14 05:26:35;;;;;;;25.17;18.80;;;;;;;7.69;74.53;100868.38;5097212;28;20444;-62
2022/03/14 05:29:01;;;;;;;25.40;19.90;;;;;;;7.76;74.29;100871.47;5097647;28;20490;-63
2022/03/14 05:31:30;;;;;;;24.67;19.20;;;;;;;7.65;75.06;100874.03;5089900;28;20875;-63
2022/03/14 05:33:57;;;;;;;24.87;18.60;;;;;;;7.53;74.76;100878.38;5089800;28;20447;-62
2022/03/14 05:36:23;;;;;;;29.97;20.83;;;;;;;7.70;74.84;100879.88;5094272;28;20486;-63
2022/03/14 05:38:50;;;;;;;28.67;19.80;;;;;;;7.64;75.10;100880.31;5100788;28;20442;-63
2022/03/14 05:41:17;;;;;;;26.57;18.57;;;;;;;7.53;75.44;100881.03;5099143;28;20548;-64
2022/03/14 05:43:43;;;;;;;27.10;19.10;;;;;;;7.52;75.71;100885.50;5090766;28;20463;-63
2022/03/14 05:46:30;;;;;;;29.20;19.60;;;;;;;7.58;76.32;100886.06;5093951;28;20449;-63
2022/03/14 05:48:56;;;;;;;33.97;18.83;;;;;;;7.47;76.28;100882.31;5083009;28;20503;-63
2022/03/14 05:51:23;;;;;;;27.50;19.93;;;;;;;7.62;76.97;100890.19;5094119;28;21057;-63
2022/03/14 05:53:50;;;;;;;28.53;20.60;;;;;;;7.65;76.90;100897.97;5080543;28;20961;-63
2022/03/14 05:56:16;;;;;;;32.10;20.33;;;;;;;7.61;77.69;100901.81;5088150;28;21553;-63
2022/03/14 05:58:43;;;;;;;32.80;20.97;;;;;;;7.72;78.18;100901.91;5098253;28;20462;-63
2022/03/14 06:01:10;;;;;;;32.20;21.73;;;;;;;7.63;78.53;100915.84;5097796;28;20891;-63
2022/03/14 06:03:38;;;;;;;30.53;21.13;;;;;;;7.56;79.00;100911.91;5094269;28;20450;-63
2022/03/14 06:06:05;;;;;;;32.00;21.47;;;;;;;7.55;79.41;100913.72;5103232;28;20479;-64
2022/03/14 06:08:31;;;;;;;27.37;20.53;;;;;;;7.65;79.57;100921.91;5094220;28;20845;-66
2022/03/14 06:10:58;;;;;;;31.97;21.93;;;;;;;7.59;80.30;100925.88;5097133;28;20443;-66
2022/03/14 06:13:25;;;;;;;30.10;23.10;;;;;;;7.72;80.61;100923.19;5095082;28;20459;-64
2022/03/14 06:15:52;;;;;;;32.80;22.60;;;;;;;7.64;80.73;100928.22;5096392;28;20462;-63
2022/03/14 06:18:19;;;;;;;31.57;21.93;;;;;;;7.41;81.14;100941.25;5103267;28;20442;-64
2022/03/14 06:20:47;;;;;;;30.80;22.80;;;;;;;7.42;81.42;100942.13;5102825;28;20453;-63
2022/03/14 06:23:16;;;;;;;34.20;24.80;;;;;;;7.44;81.62;100946.38;5102854;28;20436;-63
2022/03/14 06:25:43;;;;;;;39.20;24.30;;;;;;;7.69;81.70;100948.22;5087103;28;20459;-64
2022/03/14 06:28:10;;;;;;;29.47;21.50;;;;;;;7.49;81.99;100959.38;5094194;28;20931;-63
2022/03/14 06:30:36;;;;;;;35.40;23.93;;;;;;;7.76;81.96;100958.44;5096410;28;20825;-64
2022/03/14 06:33:03;;;;;;;34.73;24.50;;;;;;;7.63;82.43;100961.09;5104328;28;20435;-64
2022/03/14 06:35:30;;;;;;;35.03;23.97;;;;;;;7.70;82.71;100963.22;5088360;28;20482;-63
2022/03/14 06:37:58;;;;;;;40.43;26.37;;;;;;;7.63;83.04;100961.09;5093848;28;20562;-64
2022/03/14 06:40:27;;;;;;;42.77;26.03;;;;;;;7.78;83.06;100969.84;5082922;28;20463;-64
2022/03/14 06:42:54;;;;;;;41.30;26.00;;;;;;;7.64;83.44;100973.47;5103473;28;20526;-63
2022/03/14 06:45:23;;;;;;;39.70;25.90;;;;;;;7.74;84.00;100977.19;5102701;28;20450;-64
2022/03/14 06:47:50;;;;;;;39.77;26.83;;;;;;;7.81;84.25;100982.94;5092898;28;20527;-64
2022/03/14 06:50:17;;;;;;;36.60;26.00;;;;;;;7.79;84.16;100982.19;5084292;28;20440;-64
2022/03/14 06:52:44;;;;;;;32.50;23.40;;;;;;;7.96;84.68;100981.88;5103893;28;20427;-64
2022/03/14 06:55:12;;;;;;;34.70;22.17;;;;;;;7.86;84.99;100983.47;5103072;28;20478;-64
2022/03/14 06:57:39;;;;;;;32.03;22.00;;;;;;;7.92;85.85;100983.06;5096942;28;20480;-64
2022/03/14 07:00:07;;;;;;;35.43;22.50;;;;;;;7.78;85.50;100986.69;5083116;28;20428;-64
2022/03/14 07:02:35;;;;;;;37.13;25.00;;;;;;;8.00;85.57;100985.19;5087336;28;20872;-64
2022/03/14 07:05:02;;;;;;;35.67;24.27;;;;;;;7.82;85.26;100976.66;5093830;28;20448;-64
2022/03/14 07:07:28;;;;;;;33.00;23.90;;;;;;;7.79;86.14;100975.06;5091342;28;20469;-63
2022/03/14 07:09:55;;;;;;;34.87;23.90;;;;;;;7.89;86.07;100981.47;5090624;28;20461;-63
2022/03/14 07:12:24;;;;;;;33.57;23.53;;;;;;;7.81;86.52;100994.47;5095140;28;20515;-63
2022/03/14 07:14:50;;;;;;;34.93;24.57;;;;;;;7.73;86.53;100989.66;5091087;28;20455;-63
2022/03/14 07:17:17;;;;;;;38.40;25.17;;;;;;;7.86;85.86;100992.34;5088038;28;20527;-63
2022/03/14 07:19:45;;;;;;;37.00;22.80;;;;;;;7.77;85.75;100990.28;5101746;28;20473;-63
2022/03/14 07:22:17;;;;;;;34.70;22.57;;;;;;;7.96;85.31;100994.38;5101812;28;20771;-63
2022/03/14 07:24:45;;;;;;;30.03;20.83;;;;;;;7.86;85.44;100999.44;5095232;28;20851;-64
2022/03/14 07:27:12;;;;;;;29.37;21.03;;;;;;;7.78;85.59;101005.31;5092054;28;20451;-64
2022/03/14 07:29:40;;;;;;;32.77;21.13;;;;;;;7.90;85.76;101001.81;5101594;28;20831;-64
2022/03/14 07:32:07;;;;;;;30.90;20.10;;;;;;;7.94;85.39;101006.94;5083420;28;20466;-64
2022/03/14 07:34:34;;;;;;;32.33;21.40;;;;;;;7.83;85.75;101008.50;5081655;28;20428;-64
2022/03/14 07:37:01;;;;;;;28.10;20.13;;;;;;;8.13;84.66;101012.69;5084847;28;21005;-64
2022/03/14 07:39:29;;;;;;;29.20;21.20;;;;;;;8.22;84.26;101017.38;5100532;28;20482;-64
2022/03/14 07:41:56;;;;;;;27.20;20.00;;;;;;;8.24;84.20;101012.78;5081447;28;20491;-64
2022/03/14 07:44:23;;;;;;;30.10;20.17;;;;;;;7.97;84.88;101023.56;5081731;28;20460;-64
2022/03/14 07:46:51;;;;;;;27.40;20.57;;;;;;;8.08;84.28;101023.66;5081953;28;20451;-64
2022/03/14 07:49:18;;;;;;;28.17;19.20;;;;;;;8.37;84.04;101015.47;5100962;28;20496;-64
2022/03/14 07:51:44;;;;;;;28.90;20.63;;;;;;;8.22;83.87;101025.38;5092622;28;20440;-64
2022/03/14 07:54:11;;;;;;;25.90;18.60;;;;;;;8.46;83.11;101022.00;5079416;28;20458;-64
2022/03/14 07:56:38;;;;;;;23.90;17.80;;;;;;;8.37;83.28;101015.47;5088116;28;20513;-64
2022/03/14 07:59:04;;;;;;;25.73;19.43;;;;;;;8.69;82.81;101011.50;5100964;28;20438;-64
2022/03/14 08:01:31;;;;;;;25.17;18.20;;;;;;;8.90;82.10;101020.63;5089044;28;20439;-63
2022/03/14 08:03:59;;;;;;;25.20;18.33;;;;;;;8.93;81.62;101011.56;5093431;28;20511;-63
2022/03/14 08:06:26;;;;;;;25.60;17.90;;;;;;;8.99;81.04;101011.97;5100067;28;20553;-64
2022/03/14 08:08:53;;;;;;;24.60;18.00;;;;;;;9.14;80.94;101014.47;5100115;28;20439;-65
2022/03/14 08:11:20;;;;;;;26.97;18.50;;;;;;;9.16;80.67;101013.38;5100355;28;20473;-64
2022/03/14 08:13:46;;;;;;;23.30;17.87;;;;;;;9.17;80.76;101008.91;5099937;28;20455;-64
2022/03/14 08:16:13;;;;;;;23.27;18.13;;;;;;;9.23;80.26;101013.78;5091296;28;20521;-64
2022/03/14 08:18:40;;;;;;;29.70;18.63;;;;;;;9.21;79.89;101011.22;5080310;28;20550;-64
2022/03/14 08:21:08;;;;;;;28.50;18.77;;;;;;;9.20;80.41;101011.34;5083884;28;20448;-64
2022/03/14 08:23:36;;;;;;;28.27;17.40;;;;;;;8.56;82.35;101017.72;5094194;28;20520;-64
2022/03/14 08:26:03;;;;;;;26.00;18.83;;;;;;;8.93;82.83;101014.22;5089063;28;20452;-64
2022/03/14 08:28:31;;;;;;;23.47;16.60;;;;;;;9.03;82.01;101021.44;5094288;28;20431;-64
2022/03/14 08:30:58;;;;;;;24.30;17.20;;;;;;;9.15;82.02;101021.50;5084734;28;20526;-64
2022/03/14 08:33:27;;;;;;;25.20;16.90;;;;;;;8.90;81.71;101023.28;5091185;28;20516;-64
2022/03/14 08:35:54;;;;;;;22.40;15.50;;;;;;;9.07;81.88;101029.22;5099792;28;20969;-65
2022/03/14 08:38:22;;;;;;;21.60;14.63;;;;;;;9.20;81.48;101027.34;5095409;28;20475;-64
2022/03/14 08:40:49;;;;;;;22.63;15.20;;;;;;;9.02;81.44;101034.88;5098502;28;20494;-64
2022/03/14 08:43:16;;;;;;;18.30;14.47;;;;;;;8.89;81.45;101042.06;5099940;28;20447;-64
2022/03/14 08:45:44;;;;;;;19.70;15.17;;;;;;;9.18;81.25;101045.28;5099109;28;20451;-64
2022/03/14 08:48:11;;;;;;;20.80;14.97;;;;;;;9.01;82.23;101047.38;5099833;28;20438;-64
2022/03/14 08:50:38;;;;;;;23.03;14.80;;;;;;;9.00;81.96;101045.66;5100261;28;21001;-64
2022/03/14 08:53:04;;;;;;;18.60;13.17;;;;;;;8.96;81.74;101048.69;5098622;28;20509;-64
2022/03/14 08:55:32;;;;;;;20.83;12.40;;;;;;;8.83;82.49;101054.88;5099139;28;20459;-64
2022/03/14 08:58:00;;;;;;;14.63;11.47;;;;;;;8.96;82.16;101056.69;5080541;28;20480;-63
2022/03/14 09:00:27;;;;;;;16.03;12.33;;;;;;;8.99;81.56;101057.31;5078757;28;20503;-63
2022/03/14 09:02:54;;;;;;;14.17;11.10;;;;;;;8.81;82.41;101061.28;5096159;28;20451;-63
2022/03/14 09:05:21;;;;;;;17.00;11.30;;;;;;;9.21;81.30;101063.75;5093609;28;21209;-63
2022/03/14 09:07:48;;;;;;;15.83;12.10;;;;;;;8.93;81.55;101059.56;5094508;28;20819;-63
2022/03/14 09:10:17;;;;;;;17.77;11.20;;;;;;;9.06;81.57;101068.38;5099349;28;20471;-63
2022/03/14 09:12:45;;;;;;;14.33;10.17;;;;;;;8.92;82.12;101057.84;5099533;28;20444;-63
2022/03/14 09:15:13;;;;;;;11.30;9.40;;;;;;;8.59;82.29;101064.59;5097951;28;20467;-63
2022/03/14 09:17:46;;;;;;;14.43;10.73;;;;;;;8.60;82.24;101067.16;5094694;28;20538;-63
2022/03/14 09:20:15;;;;;;;19.17;12.60;;;;;;;8.74;82.65;101070.69;5078812;28;20447;-64
2022/03/14 09:22:45;;;;;;;12.37;10.30;;;;;;;8.81;82.69;101070.13;5082537;28;20447;-63
2022/03/14 09:25:13;;;;;;;14.80;11.53;;;;;;;8.92;82.41;101071.19;5088695;28;20463;-62
2022/03/14 09:27:40;;;;;;;15.93;11.20;;;;;;;9.03;81.88;101077.47;5095005;28;20431;-64
2022/03/14 09:30:11;;;;;;;12.27;10.17;;;;;;;8.87;82.44;101076.88;5078886;28;20456;-64
2022/03/14 09:32:38;;;;;;;15.70;11.10;;;;;;;8.84;82.32;101077.91;5083561;28;20439;-64
2022/03/14 09:35:05;;;;;;;11.43;8.30;;;;;;;8.81;82.48;101074.63;5082311;28;20522;-64
2022/03/14 09:37:32;;;;;;;14.03;9.33;;;;;;;8.50;82.35;101073.25;5079244;28;20544;-64
2022/03/14 09:39:59;;;;;;;11.37;9.00;;;;;;;8.61;82.68;101082.22;5077290;28;20483;-64
2022/03/14 09:42:28;;;;;;;10.77;8.80;;;;;;;8.37;82.27;101076.75;5079695;28;20513;-64
2022/03/14 09:44:57;;;;;;;9.57;7.70;;;;;;;8.62;82.86;101085.72;5081909;28;20459;-64
2022/03/14 09:47:25;;;;;;;11.53;9.20;;;;;;;8.79;82.34;101079.22;5077213;28;20443;-64
2022/03/14 09:49:54;;;;;;;12.00;9.23;;;;;;;8.75;81.69;101080.38;5078865;28;20474;-64
2022/03/14 09:52:21;;;;;;;10.97;8.73;;;;;;;8.76;82.28;101092.75;5079230;28;20641;-65
2022/03/14 09:54:49;;;;;;;11.60;8.70;;;;;;;9.00;82.07;101092.84;5092408;28;20447;-63
2022/03/14 09:57:15;;;;;;;11.67;8.97;;;;;;;9.03;81.79;101087.28;5084991;28;20456;-63
2022/03/14 09:59:43;;;;;;;11.07;9.10;;;;;;;9.04;81.55;101103.19;5079170;28;20451;-63
2022/03/14 10:02:12;;;;;;;10.67;8.20;;;;;;;9.08;81.75;101101.16;5088830;28;20447;-63
2022/03/14 10:04:40;;;;;;;8.90;8.00;;;;;;;8.62;83.33;101101.72;5099035;28;20463;-64
2022/03/14 10:07:07;;;;;;;15.10;9.00;;;;;;;8.54;83.83;101104.94;5092462;28;20447;-63
2022/03/14 10:09:34;;;;;;;11.73;8.73;;;;;;;8.71;83.44;101101.06;5077531;28;20513;-63
2022/03/14 10:12:01;;;;;;;15.07;11.00;;;;;;;8.81;83.58;101110.13;5078969;28;20451;-63
2022/03/14 10:14:28;;;;;;;15.07;11.77;;;;;;;8.76;84.04;101116.75;5095935;28;20439;-64
2022/03/14 10:16:56;;;;;;;16.53;11.23;;;;;;;9.02;83.53;101115.75;5098062;28;20459;-63
2022/03/14 10:19:30;;;;;;;16.93;11.00;;;;;;;9.13;83.57;101117.69;5102450;28;20478;-63
2022/03/14 10:22:13;;;;;;;15.67;11.93;;;;;;;9.01;83.46;101116.72;5101957;28;20516;-63
2022/03/14 10:24:40;;;;;;;13.20;11.80;;;;;;;9.26;83.60;101119.47;5101466;28;21083;-64
2022/03/14 10:27:07;;;;;;;13.03;11.33;;;;;;;9.31;83.48;101130.66;5098726;28;20447;-63
2022/03/14 10:29:36;;;;;;;14.70;12.43;;;;;;;9.43;83.29;101127.94;5082399;28;20440;-63
2022/03/14 10:32:06;;;;;;;15.00;13.00;;;;;;;9.67;83.39;101124.44;5091229;28;20454;-64
2022/03/14 10:34:33;;;;;;;16.37;12.83;;;;;;;9.77;82.26;101129.94;5096292;28;20463;-62
2022/03/14 10:37:01;;;;;;;20.10;14.10;;;;;;;9.70;83.26;101132.19;5097189;28;20463;-63
2022/03/14 10:39:30;;;;;;;17.43;13.30;;;;;;;9.90;81.93;101135.22;5098563;28;20474;-63
2022/03/14 10:42:07;;;;;;;18.20;14.57;;;;;;;10.04;81.82;101143.06;5097945;28;20839;-63
2022/03/14 10:44:34;;;;;;;18.97;14.80;;;;;;;10.15;81.85;101134.22;5100237;28;20427;-63
2022/03/14 10:47:02;;;;;;;19.23;14.37;;;;;;;9.89;82.00;101144.19;5102807;28;20451;-63
2022/03/14 10:49:30;;;;;;;18.93;14.63;;;;;;;9.75;81.84;101151.41;5102026;28;20784;-63
2022/03/14 10:51:58;;;;;;;19.03;15.20;;;;;;;10.06;81.69;101157.16;5102346;28;20994;-63
2022/03/14 10:54:27;;;;;;;25.37;15.73;;;;;;;9.94;81.79;101160.75;5102197;28;20546;-63
2022/03/14 10:57:05;;;;;;;22.97;15.63;;;;;;;9.89;82.35;101152.22;5101619;28;20541;-63
2022/03/14 10:59:36;;;;;;;19.03;14.37;;;;;;;10.13;82.07;101158.38;5083364;28;20502;-63
2022/03/14 11:02:06;;;;;;;20.03;14.97;;;;;;;10.17;81.39;101162.56;5097161;28;20488;-63
2022/03/14 11:04:44;;;;;;;17.67;15.30;;;;;;;10.12;82.09;101156.69;5087420;28;20447;-63
2022/03/14 11:07:11;;;;;;;18.20;15.10;;;;;;;9.95;82.23;101163.31;5095892;28;20527;-63
2022/03/14 11:09:47;;;;;;;17.83;14.40;;;;;;;10.03;81.63;101165.38;5089131;28;20443;-64
2022/03/14 11:12:16;;;;;;;17.30;14.70;;;;;;;10.37;81.50;101168.25;5091887;28;20444;-64
2022/03/14 11:14:43;;;;;;;19.20;16.57;;;;;;;10.41;80.64;101160.84;5081945;28;20452;-64
2022/03/14 11:17:24;;;;;;;21.30;15.00;;;;;;;10.63;80.58;101168.91;5100331;28;21197;-63
2022/03/14 11:19:51;;;;;;;19.53;15.30;;;;;;;10.59;79.75;101166.59;5100525;28;20453;-64
2022/03/14 11:22:19;;;;;;;22.97;15.83;;;;;;;10.16;81.06;101168.84;5096193;28;20444;-63